KRIL

Rifle Garfield County Airport

Rifle, Colorado, USA
KRIL 151124Z 1512/1612 00000KT P6SM SKC FM152000 31004KT P6SM SKC FM160200 00000KT P6SM SKC
Issued Valid From Valid To
Nov-15 @ 11:24 UTC
(an hour ago)
Nov-15 @ 12:00 UTC
(43 minutes ago)
Nov-16 @ 12:00 UTC
(in 23 hours)
Nov-15 @ 12:00 to Nov-15 @ 20:00
KRIL 151124Z 1512/1612 00000KT P6SM SKC
Visibility Clouds
Greater than 6 miles
  • Clear skies
From Nov-15 @ 20:00 to Nov-16 @ 02:00
FM152000 31004KT P6SM SKC
Wind Visibility Clouds
310° at 4 knots Greater than 6 miles
  • Clear skies
From Nov-16 @ 02:00 to Nov-16 @ 12:00
FM160200 00000KT P6SM SKC
Visibility Clouds
Greater than 6 miles
  • Clear skies
KRIL 151124Z 1512/1612 00000KT P6SM SKC FM152000 31004KT P6SM SKC FM160200 00000KT P6SM SKC
Issued Nov-15 @ 11:24 UTC
(an hour ago)
Valid From Nov-15 @ 12:00 UTC
(43 minutes ago)
Valid To Nov-16 @ 12:00 UTC
(in 23 hours)
Nov-15 @ 12:00 - Nov-15 @ 20:00
Clouds
  • Clear skies
From Nov-15 @ 20:00 - Nov-16 @ 02:00
Wind Visibility
310° at 4 knots Greater than 6 miles
Clouds
  • Clear skies
From Nov-16 @ 02:00 - Nov-16 @ 12:00
Clouds
  • Clear skies